Time;durP1;ratioP1;P1;durP2;ratioP2;P2;SDS_P1;SDS_P2;PMS_P1;PMS_P2;Temp;Humidity;BMP_temperature;BMP_pressure;BME280_temperature;BME280_humidity;BME280_pressure;Samples;Min_cycle;Max_cycle;Signal;HPM_P1;HPM_P2
2023/07/12 00:00:22;;;;;;;8.27;4.50;;;;;;;19.05;100.00;98573.59;5034920;28;20036;-75
2023/07/12 00:02:48;;;;;;;5.93;3.85;;;;;;;19.04;100.00;98573.84;5043370;28;20079;-75
2023/07/12 00:05:13;;;;;;;7.78;3.85;;;;;;;19.01;100.00;98599.06;5032028;28;20430;-75
2023/07/12 00:07:39;;;;;;;7.20;4.47;;;;;;;18.99;100.00;98607.56;5050064;28;20372;-75
2023/07/12 00:10:13;;;;;;;6.22;3.90;;;;;;;18.96;100.00;98616.28;5037695;28;20025;-74
2023/07/12 00:12:39;;;;;;;6.38;3.88;;;;;;;18.99;100.00;98628.66;5035000;28;20082;-75
2023/07/12 00:15:05;;;;;;;7.53;4.43;;;;;;;19.01;100.00;98623.75;5036126;28;20029;-75
2023/07/12 00:17:30;;;;;;;8.82;4.20;;;;;;;18.97;100.00;98617.16;5052278;28;20016;-75
2023/07/12 00:19:55;;;;;;;8.13;4.40;;;;;;;18.98;100.00;98607.81;5026389;28;20037;-75
2023/07/12 00:22:22;;;;;;;6.90;3.60;;;;;;;18.99;100.00;98604.81;5046854;28;20127;-75
2023/07/12 00:24:47;;;;;;;6.20;4.40;;;;;;;18.98;100.00;98602.34;5051765;28;20529;-75
2023/07/12 00:27:12;;;;;;;4.72;3.55;;;;;;;19.01;100.00;98602.63;5026911;28;20029;-75
2023/07/12 00:29:38;;;;;;;7.40;3.90;;;;;;;19.07;100.00;98625.41;5042111;28;20025;-75
2023/07/12 00:32:03;;;;;;;9.90;3.35;;;;;;;18.99;100.00;98593.00;5034318;28;20504;-75
2023/07/12 00:34:29;;;;;;;5.72;3.00;;;;;;;18.93;100.00;98585.84;5052454;28;20028;-75
2023/07/12 00:36:54;;;;;;;3.85;2.65;;;;;;;18.99;100.00;98588.38;5044728;28;20053;-75
2023/07/12 00:39:19;;;;;;;5.95;3.13;;;;;;;19.00;100.00;98583.72;5030845;28;20036;-75
2023/07/12 00:41:58;;;;;;;7.07;2.55;;;;;;;19.08;100.00;98579.66;5028048;28;20032;-75
2023/07/12 00:44:28;;;;;;;;;;;;;;;19.04;100.00;98555.47;5038228;28;20029;-75
2023/07/12 00:46:54;;;;;;;;;;;;;;;19.07;100.00;98525.88;5048617;28;20029;-75
2023/07/12 00:49:20;;;;;;;2.40;1.75;;;;;;;19.02;100.00;98519.28;5031681;28;19913;-75
2023/07/12 00:51:48;;;;;;;3.78;2.28;;;;;;;19.18;100.00;98530.34;5043142;28;20017;-75
2023/07/12 00:54:24;;;;;;;4.00;1.88;;;;;;;18.94;100.00;98488.78;5024609;28;20044;-77
2023/07/12 00:56:49;;;;;;;5.13;2.05;;;;;;;19.04;100.00;98503.38;5043612;28;20081;-74
2023/07/12 00:59:30;;;;;;;3.63;2.15;;;;;;;19.00;100.00;98496.78;5045226;28;20706;-74
2023/07/12 01:02:01;;;;;;;5.80;2.10;;;;;;;19.06;100.00;98500.38;5031588;28;20029;-75
2023/07/12 01:04:32;;;;;;;3.38;1.85;;;;;;;19.12;100.00;98512.19;5050642;28;20021;-75
2023/07/12 01:06:58;;;;;;;4.00;1.80;;;;;;;19.13;100.00;98500.97;5043180;28;20190;-75
2023/07/12 01:09:26;;;;;;;2.42;1.80;;;;;;;19.16;100.00;98518.81;5037633;28;20071;-74
2023/07/12 01:11:52;;;;;;;5.47;1.80;;;;;;;19.00;100.00;98491.31;5052221;28;20479;-75
2023/07/12 01:14:18;;;;;;;2.00;1.50;;;;;;;19.17;100.00;98514.97;5052447;28;20111;-74
2023/07/12 01:17:02;;;;;;;3.75;2.00;;;;;;;19.09;100.00;98488.88;5052209;28;20033;-74
2023/07/12 01:19:29;;;;;;;3.13;1.77;;;;;;;19.11;100.00;98491.38;5048916;28;20495;-75
2023/07/12 01:21:55;;;;;;;3.17;2.08;;;;;;;18.94;100.00;98473.19;5048554;28;20506;-76
2023/07/12 01:24:23;;;;;;;4.10;2.20;;;;;;;18.89;100.00;98464.09;5026396;28;20032;-76
2023/07/12 01:26:50;;;;;;;2.28;1.77;;;;;;;19.07;100.00;98482.00;5019115;28;20025;-74
2023/07/12 01:29:16;;;;;;;5.25;1.70;;;;;;;19.05;100.00;98494.09;5034012;28;20064;-75
2023/07/12 01:31:43;;;;;;;6.05;2.10;;;;;;;18.96;100.00;98460.03;5030593;28;20072;-75
2023/07/12 01:34:09;;;;;;;4.03;1.85;;;;;;;19.09;100.00;98455.16;5034572;28;20576;-76
2023/07/12 01:36:35;;;;;;;2.33;1.65;;;;;;;18.90;100.00;98409.03;5050254;28;20025;-74
2023/07/12 01:39:02;;;;;;;2.80;1.90;;;;;;;19.06;100.00;98409.91;5039654;28;20387;-74
2023/07/12 01:41:28;;;;;;;3.67;1.60;;;;;;;19.14;100.00;98425.03;5049682;28;20064;-75
2023/07/12 01:43:54;;;;;;;2.45;1.60;;;;;;;19.22;100.00;98405.28;5051963;28;20065;-75
2023/07/12 01:46:20;;;;;;;4.93;1.85;;;;;;;19.18;100.00;98374.03;5033349;28;20112;-75
2023/07/12 01:48:45;;;;;;;3.92;1.42;;;;;;;19.24;100.00;98348.25;5035435;28;20021;-76
2023/07/12 01:51:11;;;;;;;3.22;1.70;;;;;;;19.26;100.00;98359.78;5029263;28;20033;-75
2023/07/12 01:53:37;;;;;;;4.30;1.70;;;;;;;19.23;100.00;98385.00;5032662;28;20135;-75
2023/07/12 01:56:03;;;;;;;2.83;1.45;;;;;;;19.24;100.00;98395.72;5024516;28;20120;-75
2023/07/12 01:58:29;;;;;;;6.20;1.75;;;;;;;19.19;100.00;98351.00;5044660;28;20065;-75
2023/07/12 02:00:55;;;;;;;1.98;1.40;;;;;;;19.27;100.00;98354.03;5033595;28;20434;-76
2023/07/12 02:03:21;;;;;;;3.78;1.83;;;;;;;19.34;100.00;98326.34;5028640;28;20028;-74
2023/07/12 02:05:46;;;;;;;3.45;1.40;;;;;;;19.45;100.00;98327.19;5033413;28;20021;-75
2023/07/12 02:08:12;;;;;;;2.13;1.15;;;;;;;19.44;100.00;98282.47;5025977;28;20032;-74
2023/07/12 02:10:38;;;;;;;2.92;1.60;;;;;;;19.63;100.00;98298.38;5031577;28;20076;-76
2023/07/12 02:13:04;;;;;;;3.28;1.35;;;;;;;19.59;100.00;98308.25;5026877;28;20017;-76
2023/07/12 02:15:29;;;;;;;4.05;1.40;;;;;;;19.37;100.00;98303.03;5032801;28;20029;-76
2023/07/12 02:17:55;;;;;;;3.20;1.67;;;;;;;19.31;100.00;98337.00;5047137;28;20026;-75
2023/07/12 02:20:20;;;;;;;2.75;1.50;;;;;;;19.23;100.00;98344.69;5029065;28;20040;-76
2023/07/12 02:22:47;;;;;;;2.13;1.40;;;;;;;19.29;100.00;98323.59;5033632;28;20082;-76
2023/07/12 02:25:14;;;;;;;2.97;1.40;;;;;;;19.31;100.00;98339.75;5049915;28;20021;-76
2023/07/12 02:27:40;;;;;;;2.60;1.40;;;;;;;19.31;100.00;98339.75;5051752;28;20028;-76
2023/07/12 02:30:14;;;;;;;2.47;1.40;;;;;;;19.12;100.00;98325.75;5049250;28;20025;-76
2023/07/12 02:32:39;;;;;;;2.85;1.55;;;;;;;19.17;100.00;98336.72;5033320;28;20025;-76
2023/07/12 02:35:05;;;;;;;2.83;1.58;;;;;;;19.14;100.00;98327.13;5023279;28;20029;-77
2023/07/12 02:37:31;;;;;;;3.33;1.60;;;;;;;19.19;100.00;98342.75;5030184;28;20028;-77
2023/07/12 02:39:56;;;;;;;5.13;1.65;;;;;;;19.09;100.00;98323.53;5039046;28;20386;-77
2023/07/12 02:42:21;;;;;;;3.78;1.65;;;;;;;19.10;100.00;98338.88;5039166;28;20382;-76
2023/07/12 02:44:47;;;;;;;3.40;1.88;;;;;;;19.04;100.00;98330.66;5043075;28;20083;-76
2023/07/12 02:47:12;;;;;;;2.67;1.63;;;;;;;18.99;100.00;98325.19;5041440;28;20090;-76
2023/07/12 02:49:39;;;;;;;4.30;1.70;;;;;;;18.90;100.00;98326.78;5017995;28;20051;-75
2023/07/12 02:52:06;;;;;;;4.20;1.73;;;;;;;18.99;100.00;98341.63;5042719;28;20021;-76
2023/07/12 02:54:32;;;;;;;3.47;1.80;;;;;;;18.97;100.00;98348.47;5040031;28;20055;-78
2023/07/12 02:56:58;;;;;;;6.28;1.88;;;;;;;18.86;100.00;98336.63;5054868;28;20033;-77
2023/07/12 02:59:24;;;;;;;4.40;1.85;;;;;;;18.74;100.00;98328.63;5054877;28;20024;-76
2023/07/12 03:01:50;;;;;;;3.55;1.90;;;;;;;18.78;100.00;98351.66;5036611;28;20032;-77
2023/07/12 03:04:16;;;;;;;4.00;1.75;;;;;;;18.77;100.00;98349.22;5031126;28;20344;-77
2023/07/12 03:06:41;;;;;;;3.83;1.75;;;;;;;18.65;100.00;98332.94;5038470;28;20021;-77
2023/07/12 03:09:06;;;;;;;6.03;1.70;;;;;;;18.84;100.00;98374.47;5052294;28;20490;-76
2023/07/12 03:11:32;;;;;;;3.78;1.90;;;;;;;18.83;100.00;98367.31;5036395;28;20021;-77
2023/07/12 03:13:57;;;;;;;5.88;2.00;;;;;;;18.75;100.00;98345.91;5032877;28;20037;-76
2023/07/12 03:16:22;;;;;;;5.65;1.75;;;;;;;18.73;100.00;98340.69;5030972;28;20494;-76
2023/07/12 03:18:49;;;;;;;3.25;1.80;;;;;;;18.84;100.00;98347.06;5049057;28;20100;-77
2023/07/12 03:21:14;;;;;;;5.35;1.70;;;;;;;18.75;100.00;98332.19;5039379;28;20494;-77
2023/07/12 03:23:39;;;;;;;6.13;2.17;;;;;;;18.98;100.00;98372.03;5056900;28;20020;-77
2023/07/12 03:26:05;;;;;;;3.15;1.75;;;;;;;19.01;100.00;98353.13;5039397;28;20025;-76
2023/07/12 03:28:30;;;;;;;3.08;1.40;;;;;;;19.13;100.00;98357.56;5047377;28;20029;-76
2023/07/12 03:30:58;;;;;;;6.30;1.85;;;;;;;19.07;100.00;98347.66;5041863;28;20043;-76
2023/07/12 03:33:23;;;;;;;3.90;1.80;;;;;;;19.10;100.00;98352.59;5038531;28;20028;-76
2023/07/12 03:35:51;;;;;;;4.80;1.77;;;;;;;19.13;100.00;98346.59;5049007;28;20119;-76
2023/07/12 03:38:17;;;;;;;4.57;1.52;;;;;;;19.30;100.00;98351.84;5048345;28;20033;-69
2023/07/12 03:40:44;;;;;;;8.30;1.80;;;;;;;19.23;100.00;98333.72;5038490;28;20776;-65
2023/07/12 03:43:09;;;;;;;4.50;1.92;;;;;;;19.33;100.00;98345.81;5048995;28;20036;-69
2023/07/12 03:45:35;;;;;;;9.82;1.83;;;;;;;19.38;100.00;98348.56;5041569;28;20366;-69
2023/07/12 03:48:00;;;;;;;6.85;1.80;;;;;;;19.47;100.00;98361.47;5050204;28;20113;-69
2023/07/12 03:50:25;;;;;;;8.00;1.73;;;;;;;19.49;100.00;98351.06;5049577;28;20368;-74
2023/07/12 03:52:51;;;;;;;4.50;1.90;;;;;;;19.48;100.00;98349.38;5038524;28;20497;-73
2023/07/12 03:55:16;;;;;;;3.97;1.80;;;;;;;19.66;100.00;98361.78;5036225;28;20028;-73
2023/07/12 03:57:41;;;;;;;5.10;1.90;;;;;;;19.72;100.00;98359.88;5050032;28;20021;-73
2023/07/12 04:00:09;;;;;;;7.78;2.20;;;;;;;19.83;100.00;98374.41;5048179;28;20482;-72
2023/07/12 04:02:34;;;;;;;4.97;2.22;;;;;;;19.87;100.00;98381.03;5033476;28;20467;-72
2023/07/12 04:05:00;;;;;;;3.42;1.80;;;;;;;19.86;100.00;98390.38;5046877;28;20059;-73
2023/07/12 04:07:25;;;;;;;5.35;2.03;;;;;;;19.70;100.00;98348.34;5033401;28;20119;-71
2023/07/12 04:09:51;;;;;;;7.18;1.80;;;;;;;19.85;100.00;98361.25;5045084;28;20020;-73
2023/07/12 04:12:16;;;;;;;4.13;2.08;;;;;;;19.86;100.00;98347.25;5037277;28;20459;-73
2023/07/12 04:14:41;;;;;;;5.32;2.42;;;;;;;19.90;100.00;98345.59;5046776;28;20025;-69
2023/07/12 04:17:07;;;;;;;5.22;2.08;;;;;;;19.92;100.00;98357.13;5034376;28;20091;-66
2023/07/12 04:19:32;;;;;;;3.83;2.05;;;;;;;19.90;100.00;98373.03;5043821;28;20467;-72
2023/07/12 04:21:57;;;;;;;5.10;2.00;;;;;;;19.95;100.00;98385.13;5047137;28;20108;-73
2023/07/12 04:24:23;;;;;;;3.08;1.52;;;;;;;19.97;100.00;98381.03;5030541;28;20021;-74
2023/07/12 04:26:48;;;;;;;4.70;2.10;;;;;;;19.95;100.00;98357.69;5034157;28;20371;-68
2023/07/12 04:29:14;;;;;;;4.57;2.03;;;;;;;20.08;100.00;98379.91;5052183;28;20048;-68
2023/07/12 04:31:40;;;;;;;2.40;1.88;;;;;;;20.07;100.00;98369.22;5041455;28;20367;-66
2023/07/12 04:34:05;;;;;;;4.68;2.10;;;;;;;20.23;100.00;98381.84;5038283;28;20646;-66
2023/07/12 04:36:31;;;;;;;6.88;2.20;;;;;;;20.31;100.00;98380.44;5051252;28;20040;-66
2023/07/12 04:38:56;;;;;;;7.55;2.05;;;;;;;20.35;100.00;98382.34;5050580;28;20086;-66
2023/07/12 04:41:22;;;;;;;7.07;1.98;;;;;;;20.43;100.00;98380.94;5044257;28;20109;-65
2023/07/12 04:43:48;;;;;;;6.10;2.03;;;;;;;20.64;100.00;98387.25;5034093;28;20020;-66
2023/07/12 04:46:13;;;;;;;4.10;2.17;;;;;;;20.71;100.00;98381.47;5051628;28;20031;-66
2023/07/12 04:48:39;;;;;;;10.27;2.30;;;;;;;20.83;100.00;98381.16;5048381;28;20047;-70
2023/07/12 04:51:04;;;;;;;6.22;2.25;;;;;;;20.84;100.00;98388.31;5037610;28;20052;-72
2023/07/12 04:53:30;;;;;;;5.78;2.10;;;;;;;20.99;100.00;98377.25;5047800;28;20570;-68
2023/07/12 04:55:55;;;;;;;5.68;1.92;;;;;;;21.06;100.00;98365.94;5044570;28;20043;-74
2023/07/12 04:58:20;;;;;;;10.00;1.92;;;;;;;21.13;100.00;98349.94;5021756;28;20040;-75
2023/07/12 05:00:46;;;;;;;4.35;2.00;;;;;;;21.37;100.00;98366.59;5032168;28;20055;-65
2023/07/12 05:03:13;;;;;;;4.15;1.75;;;;;;;21.46;100.00;98359.41;5037203;28;20017;-65
2023/07/12 05:05:39;;;;;;;7.90;2.40;;;;;;;21.54;100.00;98367.06;5051833;28;20021;-68
2023/07/12 05:08:05;;;;;;;6.90;2.28;;;;;;;21.48;100.00;98375.63;5030301;28;21716;-69
2023/07/12 05:10:31;;;;;;;4.05;2.40;;;;;;;21.42;100.00;98378.41;5040554;28;20078;-67
2023/07/12 05:12:57;;;;;;;5.50;2.00;;;;;;;21.45;100.00;98374.25;5052284;28;20037;-69
2023/07/12 05:15:22;;;;;;;5.18;2.03;;;;;;;21.47;100.00;98368.50;5050881;28;20104;-69
2023/07/12 05:17:47;;;;;;;5.68;2.40;;;;;;;21.53;100.00;98370.09;5032549;28;20025;-69
2023/07/12 05:20:14;;;;;;;6.63;1.80;;;;;;;21.64;100.00;98382.66;5044535;28;20034;-74
2023/07/12 05:22:40;;;;;;;8.00;2.22;;;;;;;21.78;100.00;98374.59;5041960;28;20044;-73
2023/07/12 05:25:06;;;;;;;11.70;2.30;;;;;;;22.02;100.00;98388.44;5055490;28;20044;-77
2023/07/12 05:27:33;;;;;;;5.63;2.20;;;;;;;22.06;100.00;98365.56;5040195;28;20501;-77
2023/07/12 05:30:00;;;;;;;5.47;2.05;;;;;;;22.31;100.00;98366.44;5049427;28;20036;-79
2023/07/12 05:32:25;;;;;;;7.50;2.00;;;;;;;22.44;100.00;98368.50;5034218;28;20041;-69
2023/07/12 05:34:51;;;;;;;8.82;2.45;;;;;;;22.47;100.00;98347.81;5053674;28;20035;-76
2023/07/12 05:37:17;;;;;;;5.93;2.03;;;;;;;22.70;100.00;98366.28;5054010;28;20037;-74
2023/07/12 05:39:42;;;;;;;8.18;2.53;;;;;;;22.83;100.00;98350.16;5043907;28;20488;-73
2023/07/12 05:42:09;;;;;;;10.18;2.63;;;;;;;22.79;100.00;98343.59;5038900;28;20109;-71
2023/07/12 05:44:34;;;;;;;10.45;2.60;;;;;;;22.91;100.00;98350.31;5030750;28;20074;-66
2023/07/12 05:47:00;;;;;;;11.88;2.42;;;;;;;22.92;100.00;98357.50;5045456;28;20029;-75
2023/07/12 05:49:25;;;;;;;7.70;2.13;;;;;;;23.01;100.00;98343.06;5046258;28;20112;-77
2023/07/12 05:51:51;;;;;;;12.02;2.72;;;;;;;23.12;100.00;98348.16;5046649;28;20017;-77
2023/07/12 05:54:17;;;;;;;7.22;2.53;;;;;;;23.17;100.00;98355.53;5045381;28;20027;-77
2023/07/12 05:56:42;;;;;;;4.63;2.50;;;;;;;23.12;100.00;98348.16;5026652;28;20025;-70
2023/07/12 05:59:08;;;;;;;4.78;2.40;;;;;;;23.25;100.00;98343.84;5018934;28;20024;-66
2023/07/12 06:01:33;;;;;;;12.18;2.90;;;;;;;23.32;100.00;98349.00;5048680;28;20418;-66
2023/07/12 06:03:59;;;;;;;10.50;2.80;;;;;;;23.28;100.00;98345.19;5049168;28;20031;-66
2023/07/12 06:06:24;;;;;;;6.82;2.65;;;;;;;23.23;100.00;98343.31;5031487;28;20029;-66
2023/07/12 06:08:50;;;;;;;7.60;2.80;;;;;;;23.38;100.00;98351.38;5049105;28;20025;-66
2023/07/12 06:11:15;;;;;;;6.20;2.53;;;;;;;23.74;100.00;98358.34;5048068;28;20040;-65
2023/07/12 06:13:40;;;;;;;11.20;3.50;;;;;;;23.75;100.00;98346.97;5028340;28;20029;-75
2023/07/12 06:16:06;;;;;;;7.53;2.95;;;;;;;24.04;100.00;98338.47;5033067;28;20463;-74
2023/07/12 06:18:31;;;;;;;8.40;2.95;;;;;;;23.98;100.00;98349.94;5048444;28;20017;-78
2023/07/12 06:21:00;;;;;;;5.45;2.60;;;;;;;24.27;100.00;98353.25;5031949;28;20036;-75
2023/07/12 06:23:25;;;;;;;7.15;2.97;;;;;;;23.89;100.00;98347.00;5032039;28;20425;-71
2023/07/12 06:25:51;;;;;;;8.32;2.90;;;;;;;23.89;100.00;98346.19;5023762;28;20024;-69
2023/07/12 06:28:16;;;;;;;8.57;2.80;;;;;;;23.89;100.00;98358.06;5047553;28;20078;-72
2023/07/12 06:30:42;;;;;;;8.43;3.17;;;;;;;23.65;100.00;98351.81;5049884;28;20021;-74
2023/07/12 06:33:07;;;;;;;12.20;2.80;;;;;;;23.94;100.00;98360.75;5023605;28;20455;-76
2023/07/12 06:35:32;;;;;;;6.45;2.85;;;;;;;24.09;100.00;98358.84;5032379;28;20029;-76
2023/07/12 06:37:58;;;;;;;7.57;3.00;;;;;;;24.03;100.00;98352.59;5035212;28;20513;-76
2023/07/12 06:40:23;;;;;;;9.73;3.10;;;;;;;24.41;100.00;98372.63;5029998;28;20057;-76
2023/07/12 06:42:48;;;;;;;8.70;3.30;;;;;;;24.46;100.00;98363.47;5030643;28;20059;-76
2023/07/12 06:45:14;;;;;;;6.07;3.28;;;;;;;24.86;100.00;98363.78;5042758;28;20387;-77
2023/07/12 06:47:39;;;;;;;8.82;2.80;;;;;;;25.24;100.00;98377.44;5034211;28;20457;-79
2023/07/12 06:50:05;;;;;;;6.55;2.88;;;;;;;25.34;100.00;98360.59;5032769;28;20437;-76
2023/07/12 06:52:30;;;;;;;9.50;2.85;;;;;;;25.92;100.00;98370.88;5043838;28;20037;-73
2023/07/12 06:54:56;;;;;;;11.85;2.90;;;;;;;26.61;100.00;98361.34;5020111;28;20026;-66
2023/07/12 06:57:21;;;;;;;13.60;2.67;;;;;;;27.22;100.00;98370.75;5048304;28;20506;-73
2023/07/12 06:59:47;;;;;;;11.00;2.80;;;;;;;29.06;100.00;98369.38;5043508;28;20021;-75
2023/07/12 07:02:12;;;;;;;9.48;2.92;;;;;;;30.18;100.00;98364.06;5017146;28;20022;-75
2023/07/12 07:04:38;;;;;;;6.55;3.08;;;;;;;30.67;100.00;98369.78;5044455;28;20033;-76
2023/07/12 07:07:04;;;;;;;7.22;2.42;;;;;;;31.23;100.00;98358.91;5047059;28;20079;-76
2023/07/12 07:09:30;;;;;;;8.07;2.83;;;;;;;30.85;100.00;98380.78;5046042;28;20024;-76
2023/07/12 07:11:56;;;;;;;12.88;2.85;;;;;;;31.21;100.00;98369.59;5030466;28;20130;-71
2023/07/12 07:14:21;;;;;;;10.27;2.72;;;;;;;30.86;100.00;98366.47;5036808;28;20048;-75
2023/07/12 07:16:46;;;;;;;4.57;2.90;;;;;;;31.23;100.00;98381.25;5040992;28;20024;-80
2023/07/12 07:19:12;;;;;;;15.27;2.70;;;;;;;30.58;100.00;98388.63;5037965;28;20033;-81
2023/07/12 07:21:38;;;;;;;7.97;3.25;;;;;;;29.38;100.00;98395.72;5055894;28;20045;-79
2023/07/12 07:24:06;;;;;;;9.23;3.10;;;;;;;29.87;100.00;98398.81;5044010;28;20032;-81
2023/07/12 07:26:31;;;;;;;6.07;2.58;;;;;;;32.17;100.00;98398.88;5034978;28;20028;-81
2023/07/12 07:28:57;;;;;;;5.82;2.88;;;;;;;32.87;100.00;98386.38;5026482;28;20474;-78
2023/07/12 07:31:22;;;;;;;6.22;2.50;;;;;;;34.63;85.95;98377.03;5034994;28;20029;-77
2023/07/12 07:33:47;;;;;;;10.70;2.40;;;;;;;35.54;77.08;98392.19;5055007;28;20037;-80
2023/07/12 07:36:13;;;;;;;5.53;1.95;;;;;;;36.11;68.56;98383.75;5039302;28;20484;-80
2023/07/12 07:38:39;;;;;;;7.30;2.10;;;;;;;37.09;60.78;98389.19;5035996;28;20111;-85
2023/07/12 07:41:11;;;;;;;4.63;2.20;;;;;;;36.95;58.98;98401.13;5057290;28;20037;-84
2023/07/12 07:43:39;;;;;;;7.10;2.05;;;;;;;35.97;59.99;98406.84;5051717;28;20033;-77
2023/07/12 07:46:05;;;;;;;8.05;2.78;;;;;;;35.02;61.67;98410.63;5050507;28;20032;-75
2023/07/12 07:48:30;;;;;;;3.05;1.98;;;;;;;35.30;61.01;98399.06;5033206;28;20094;-81
2023/07/12 07:50:55;;;;;;;4.30;1.85;;;;;;;35.40;59.28;98400.38;5037964;28;20026;-81
2023/07/12 07:53:21;;;;;;;4.60;1.98;;;;;;;35.42;57.66;98412.09;5037587;28;20029;-75
2023/07/12 07:55:46;;;;;;;4.35;1.92;;;;;;;36.27;56.93;98400.41;5042633;28;20033;-77
2023/07/12 07:58:12;;;;;;;5.43;2.10;;;;;;;36.70;56.16;98400.88;5037555;28;20382;-75
2023/07/12 08:00:38;;;;;;;4.43;1.90;;;;;;;35.17;58.05;98409.72;5052102;28;20029;-74
2023/07/12 08:03:07;;;;;;;5.60;1.90;;;;;;;37.72;52.26;98410.59;5033811;28;20048;-81
2023/07/12 08:05:33;;;;;;;4.63;1.73;;;;;;;35.82;55.95;98414.31;5055743;28;20048;-79
2023/07/12 08:07:59;;;;;;;4.25;1.80;;;;;;;37.58;53.75;98422.63;5042499;28;20171;-75
2023/07/12 08:10:25;;;;;;;10.07;1.92;;;;;;;38.63;51.16;98433.22;5046744;28;20040;-79
2023/07/12 08:12:51;;;;;;;4.93;1.30;;;;;;;37.40;51.76;98421.66;5035911;28;20037;-74
2023/07/12 08:15:20;;;;;;;4.30;1.70;;;;;;;37.65;47.96;98419.84;5021456;28;20017;-75
2023/07/12 08:17:46;;;;;;;6.82;1.50;;;;;;;37.46;50.03;98429.34;5046365;28;20029;-77
2023/07/12 08:20:11;;;;;;;7.97;1.52;;;;;;;40.43;44.02;98414.81;5036078;28;20142;-78
2023/07/12 08:22:37;;;;;;;3.60;1.50;;;;;;;42.37;40.70;98424.44;5036966;28;20021;-75
2023/07/12 08:25:02;;;;;;;4.17;1.67;;;;;;;41.07;41.13;98424.94;5036722;28;20284;-79
2023/07/12 08:27:30;;;;;;;2.78;1.48;;;;;;;40.53;41.93;98421.63;5037784;28;20856;-81
2023/07/12 08:29:58;;;;;;;3.97;1.50;;;;;;;40.99;41.73;98417.72;5041884;28;20039;-83
2023/07/12 08:32:24;;;;;;;3.80;1.45;;;;;;;41.77;39.90;98421.09;5034314;28;20723;-79
2023/07/12 08:34:50;;;;;;;3.42;1.77;;;;;;;39.55;42.02;98417.50;5035802;28;20106;-77
2023/07/12 08:37:17;;;;;;;7.57;1.37;;;;;;;40.69;41.15;98435.34;5035676;28;20685;-79
2023/07/12 08:39:42;;;;;;;2.38;1.20;;;;;;;41.40;41.27;98425.50;5046781;28;20275;-78
2023/07/12 08:42:14;;;;;;;3.30;1.50;;;;;;;40.83;42.84;98432.41;5036209;28;20510;-77
2023/07/12 08:44:40;;;;;;;2.92;1.50;;;;;;;42.08;40.53;98441.03;5033902;28;20120;-77
2023/07/12 08:47:13;;;;;;;3.60;1.60;;;;;;;42.76;39.10;98441.00;5031268;28;20172;-77
2023/07/12 08:49:39;;;;;;;3.72;1.30;;;;;;;41.11;38.93;98425.75;5050673;28;20050;-76
2023/07/12 08:52:16;;;;;;;2.58;1.35;;;;;;;42.60;38.16;98435.91;5038215;28;20103;-77
2023/07/12 08:54:41;;;;;;;3.37;1.50;;;;;;;43.45;37.26;98435.03;5050474;28;20020;-77
2023/07/12 08:57:20;;;;;;;3.08;1.30;;;;;;;43.06;37.35;98425.09;5047866;28;20067;-76
2023/07/12 09:00:00;;;;;;;3.78;1.50;;;;;;;40.60;38.74;98435.78;5033077;28;20029;-76
2023/07/12 09:02:26;;;;;;;2.72;1.55;;;;;;;41.92;38.34;98425.41;5032427;28;20025;-77
2023/07/12 09:04:56;;;;;;;2.40;1.65;;;;;;;42.17;38.23;98432.81;5039517;28;20189;-76
2023/07/12 09:07:33;;;;;;;4.72;1.50;;;;;;;41.46;39.37;98426.66;5035255;28;20032;-78
2023/07/12 09:09:59;;;;;;;4.50;1.60;;;;;;;43.05;36.35;98383.59;5049265;28;20032;-79
2023/07/12 09:12:31;;;;;;;4.63;1.25;;;;;;;40.90;37.88;98431.53;5037714;28;20032;-79
2023/07/12 09:15:00;;;;;;;6.95;1.55;;;;;;;35.61;44.80;98442.13;5057232;28;20021;-78
2023/07/12 09:17:30;;;;;;;5.95;1.48;;;;;;;36.76;43.75;98438.78;5050684;28;20061;-78
2023/07/12 09:19:55;;;;;;;3.25;1.30;;;;;;;40.46;40.44;98422.50;5033248;28;20029;-77
2023/07/12 09:22:22;;;;;;;1.92;1.20;;;;;;;41.69;37.56;98439.44;5058990;28;20021;-78
2023/07/12 09:24:54;;;;;;;2.88;1.40;;;;;;;42.44;36.57;98436.53;5051096;28;20025;-78
2023/07/12 09:27:24;;;;;;;4.95;1.23;;;;;;;43.35;36.49;98433.16;5053169;28;20025;-78
2023/07/12 09:30:00;;;;;;;8.23;1.45;;;;;;;41.50;36.80;98441.63;5045427;28;20029;-77
2023/07/12 09:32:32;;;;;;;4.95;1.48;;;;;;;38.42;39.60;98448.06;5035880;28;20441;-77
2023/07/12 09:34:57;;;;;;;2.35;1.33;;;;;;;36.97;44.54;98444.66;5044634;28;20128;-78
2023/07/12 09:37:23;;;;;;;4.40;1.50;;;;;;;37.72;44.10;98427.53;5051842;28;20060;-77
2023/07/12 09:39:57;;;;;;;2.30;1.30;;;;;;;37.06;44.56;98436.69;5048151;28;20425;-78
2023/07/12 09:42:23;;;;;;;4.45;1.35;;;;;;;36.77;44.56;98441.25;5051718;28;20035;-78
2023/07/12 09:44:49;;;;;;;3.55;1.42;;;;;;;40.97;40.11;98432.31;5053448;28;20029;-77
2023/07/12 09:47:42;;;;;;;2.10;1.02;;;;;;;43.29;36.75;98433.66;5034025;28;20054;-77
2023/07/12 09:50:22;;;;;;;3.58;1.30;;;;;;;44.13;34.95;98423.16;5037717;28;20049;-78
2023/07/12 09:52:57;;;;;;;4.93;1.40;;;;;;;44.19;34.56;98432.81;5048113;28;20040;-78
2023/07/12 09:55:30;;;;;;;3.15;1.33;;;;;;;44.80;34.43;98431.47;5051783;28;20068;-78
2023/07/12 09:58:19;;;;;;;2.13;1.08;;;;;;;43.71;34.87;98422.75;5037581;28;20119;-78
2023/07/12 10:00:44;;;;;;;3.72;1.50;;;;;;;38.94;39.97;98430.88;5054615;28;20433;-78
2023/07/12 10:03:34;;;;;;;2.47;1.40;;;;;;;36.93;43.08;98429.69;5047574;28;20021;-78
2023/07/12 10:06:11;;;;;;;5.15;1.45;;;;;;;36.37;45.47;98434.34;5053092;28;20029;-78
2023/07/12 10:08:57;;;;;;;5.13;1.52;;;;;;;35.05;48.02;98427.53;5043084;28;20017;-77
2023/07/12 10:11:30;;;;;;;6.95;1.65;;;;;;;35.89;47.54;98427.66;5036879;28;20064;-77
2023/07/12 10:14:02;;;;;;;4.93;1.60;;;;;;;38.91;42.28;98424.00;5036306;28;20029;-81
2023/07/12 10:16:34;;;;;;;3.05;1.50;;;;;;;40.15;39.06;98397.94;5042486;28;20029;-76
2023/07/12 10:19:11;;;;;;;3.08;1.70;;;;;;;42.30;36.95;98419.66;5048087;28;20038;-76
2023/07/12 10:21:36;;;;;;;5.95;1.40;;;;;;;42.00;37.97;98409.88;5022275;28;20014;-76
2023/07/12 10:24:06;;;;;;;2.20;1.20;;;;;;;42.16;37.56;98411.28;5031887;28;20091;-75
2023/07/12 10:26:34;;;;;;;3.22;1.45;;;;;;;42.14;37.46;98405.25;5050937;28;20032;-76
2023/07/12 10:29:24;;;;;;;3.78;1.83;;;;;;;41.70;37.46;98404.13;5038161;28;20083;-76
2023/07/12 10:31:57;;;;;;;5.28;1.60;;;;;;;42.58;35.95;98407.09;5031303;28;20036;-76
2023/07/12 10:34:37;;;;;;;4.82;1.30;;;;;;;44.85;34.60;98407.31;5029179;28;20063;-76
2023/07/12 10:37:12;;;;;;;2.25;1.15;;;;;;;44.52;33.05;98400.75;5032786;28;20025;-77
2023/07/12 10:39:40;;;;;;;6.45;1.30;;;;;;;46.14;32.24;98398.19;5055506;22;20049;-62
2023/07/12 10:42:40;;;;;;;2.30;1.30;;;;;;;44.69;32.32;98402.38;5038377;28;20579;-62
2023/07/12 10:45:12;;;;;;;2.78;1.42;;;;;;;43.66;33.69;98409.00;5027071;28;20045;-62
2023/07/12 10:47:41;;;;;;;6.13;1.60;;;;;;;41.55;35.80;98406.28;5027124;28;20029;-72
2023/07/12 10:50:21;;;;;;;2.35;1.40;;;;;;;41.43;35.49;98406.81;5019115;28;20071;-68
2023/07/12 10:52:55;;;;;;;4.75;1.40;;;;;;;43.30;32.95;98406.78;5019635;28;20049;-70
2023/07/12 10:55:47;;;;;;;4.40;1.58;;;;;;;43.21;32.71;98400.88;5024843;28;20108;-69
2023/07/12 10:58:26;;;;;;;2.80;1.60;;;;;;;44.12;30.97;98395.06;5019675;28;20497;-70
2023/07/12 11:01:35;;;;;;;3.97;1.40;;;;;;;45.29;31.02;98387.09;5023958;28;20116;-70
2023/07/12 11:04:25;;;;;;;6.45;2.28;;;;;;;44.47;31.59;98392.72;5023780;28;20022;-69
2023/07/12 11:06:58;;;;;;;3.58;1.67;;;;;;;42.81;34.11;98400.66;5025213;28;20041;-69
2023/07/12 11:09:25;;;;;;;5.07;1.40;;;;;;;42.78;34.10;98400.72;5024648;28;20081;-69
2023/07/12 11:11:58;;;;;;;4.57;1.50;;;;;;;43.22;33.88;98404.50;5009124;28;20476;-69
2023/07/12 11:14:43;;;;;;;7.55;1.80;;;;;;;40.34;35.52;98399.47;5027583;28;20037;-70
2023/07/12 11:17:12;;;;;;;6.10;1.80;;;;;;;42.52;34.04;98402.31;5010040;28;20500;-70
2023/07/12 11:19:40;;;;;;;2.83;1.40;;;;;;;43.11;32.09;98382.69;5028611;28;20052;-70
2023/07/12 11:22:19;;;;;;;7.45;1.60;;;;;;;44.66;31.80;98388.19;5032591;28;20499;-62
2023/07/12 11:24:44;;;;;;;3.70;1.50;;;;;;;45.53;30.61;98373.38;5012636;28;20474;-62
2023/07/12 11:29:46;;;;;;;5.18;1.40;;;;;;;44.92;31.28;98374.97;5041338;28;20026;-78
2023/07/12 11:32:33;;;;;;;2.72;1.50;;;;;;;44.82;30.77;98371.13;5038551;28;20030;-82